Time;durP1;ratioP1;P1;durP2;ratioP2;P2;SDS_P1;SDS_P2;PMS_P1;PMS_P2;Temp;Humidity;BMP_temperature;BMP_pressure;BME280_temperature;BME280_humidity;BME280_pressure;Samples;Min_cycle;Max_cycle;Signal;HPM_P1;HPM_P2
2024/01/05 00:00:52;;;;;;;5.68;1.80;;;;;;;;;;5048966;28;20108;-83
2024/01/05 00:03:18;;;;;;;4.30;1.67;;;;;;;;;;5048971;28;20065;-83
2024/01/05 00:05:44;;;;;;;5.70;1.90;;;;;;;;;;5048597;28;20392;-83
2024/01/05 00:08:10;;;;;;;3.70;1.95;;;;;;;;;;5049201;28;20032;-82
2024/01/05 00:10:36;;;;;;;4.18;1.67;;;;;;;;;;5031751;28;20074;-83
2024/01/05 00:13:02;;;;;;;2.20;1.70;;;;;;;;;;5048839;28;20100;-83
2024/01/05 00:15:28;;;;;;;3.20;1.55;;;;;;;;;;5048415;28;20123;-83
2024/01/05 00:17:54;;;;;;;1.55;1.35;;;;;;;;;;5048505;28;20545;-83
2024/01/05 00:20:20;;;;;;;1.52;1.25;;;;;;;;;;5050804;28;20029;-83
2024/01/05 00:22:46;;;;;;;2.67;1.48;;;;;;;;;;5052893;28;20021;-84
2024/01/05 00:25:12;;;;;;;4.72;1.60;;;;;;;;;;5052809;28;20023;-84
2024/01/05 00:27:38;;;;;;;3.25;1.75;;;;;;;;;;5053493;28;20029;-84
2024/01/05 00:30:05;;;;;;;6.70;1.48;;;;;;;;;;5055453;28;20033;-84
2024/01/05 00:32:31;;;;;;;6.60;1.73;;;;;;;;;;5053643;28;20274;-84
2024/01/05 00:34:57;;;;;;;5.18;1.70;;;;;;;;;;5052633;28;20124;-83
2024/01/05 00:37:23;;;;;;;3.45;1.40;;;;;;;;;;5052205;28;20466;-84
2024/01/05 00:39:49;;;;;;;2.67;1.58;;;;;;;;;;5052121;28;20033;-83
2024/01/05 00:42:15;;;;;;;4.55;1.45;;;;;;;;;;5052503;28;20021;-83
2024/01/05 00:44:41;;;;;;;2.88;1.30;;;;;;;;;;5052579;28;20079;-83
2024/01/05 00:47:07;;;;;;;5.55;1.75;;;;;;;;;;5064952;28;20024;-84
2024/01/05 00:49:34;;;;;;;3.00;1.60;;;;;;;;;;5072478;28;20434;-84
2024/01/05 00:52:00;;;;;;;3.00;1.50;;;;;;;;;;5072405;28;20021;-84
2024/01/05 00:54:26;;;;;;;5.10;1.80;;;;;;;;;;5071583;28;20047;-83
2024/01/05 00:56:52;;;;;;;2.55;1.70;;;;;;;;;;5061082;28;20029;-83
2024/01/05 00:59:21;;;;;;;4.72;1.92;;;;;;;;;;5052111;28;20408;-83
2024/01/05 01:01:47;;;;;;;4.93;1.77;;;;;;;;;;5052242;28;20079;-83
2024/01/05 01:04:14;;;;;;;5.32;1.50;;;;;;;;;;5052125;28;20092;-84
2024/01/05 01:06:40;;;;;;;4.55;1.70;;;;;;;;;;5052181;28;20033;-84
2024/01/05 01:09:07;;;;;;;4.18;1.75;;;;;;;;;;5048799;28;20025;-84
2024/01/05 01:11:33;;;;;;;4.82;1.83;;;;;;;;;;5052065;28;20424;-83
2024/01/05 01:13:59;;;;;;;4.57;1.50;;;;;;;;;;5051866;28;20033;-83
2024/01/05 01:16:25;;;;;;;6.63;1.70;;;;;;;;;;5051589;28;20028;-84
2024/01/05 01:18:50;;;;;;;3.13;1.75;;;;;;;;;;5055927;28;20029;-84
2024/01/05 01:21:16;;;;;;;4.72;1.70;;;;;;;;;;5071949;28;20021;-84
2024/01/05 01:23:42;;;;;;;2.13;1.50;;;;;;;;;;5071892;28;20040;-83
2024/01/05 01:26:08;;;;;;;2.85;1.75;;;;;;;;;;5070023;28;20070;-83
2024/01/05 01:28:34;;;;;;;3.45;1.60;;;;;;;;;;5051904;28;20028;-84
2024/01/05 01:31:00;;;;;;;4.03;1.60;;;;;;;;;;5051255;28;20025;-83
2024/01/05 01:33:26;;;;;;;6.97;1.98;;;;;;;;;;5051279;28;20029;-83
2024/01/05 01:35:52;;;;;;;6.10;1.90;;;;;;;;;;5052362;28;20108;-83
2024/01/05 01:38:18;;;;;;;3.92;1.60;;;;;;;;;;5051480;28;20021;-83
2024/01/05 01:40:45;;;;;;;4.63;2.72;;;;;;;;;;5051408;28;20075;-83
2024/01/05 01:43:38;;;;;;;2.50;1.60;;;;;;;;;;5052262;28;20023;-83
2024/01/05 01:46:04;;;;;;;2.15;1.60;;;;;;;;;;5029575;28;20462;-83
2024/01/05 01:48:30;;;;;;;5.43;1.90;;;;;;;;;;5059405;28;20397;-83
2024/01/05 01:50:57;;;;;;;3.70;1.70;;;;;;;;;;5053385;28;20032;-83
2024/01/05 01:53:24;;;;;;;4.18;1.90;;;;;;;;;;5071072;28;20056;-83
2024/01/05 01:55:50;;;;;;;2.42;1.60;;;;;;;;;;5051105;28;20485;-83
2024/01/05 01:58:17;;;;;;;4.55;1.98;;;;;;;;;;5051197;28;20032;-83
2024/01/05 02:00:44;;;;;;;4.07;2.00;;;;;;;;;;5034507;28;20024;-83
2024/01/05 02:03:11;;;;;;;6.25;2.20;;;;;;;;;;5034085;28;20416;-86
2024/01/05 02:05:37;;;;;;;4.28;1.70;;;;;;;;;;5065387;28;20044;-83
2024/01/05 02:08:03;;;;;;;5.57;2.10;;;;;;;;;;5070860;28;20024;-83
2024/01/05 02:10:29;;;;;;;4.97;1.90;;;;;;;;;;5055944;28;20392;-83
2024/01/05 02:12:59;;;;;;;2.95;1.58;;;;;;;;;;5056761;28;20029;-83
2024/01/05 02:15:25;;;;;;;2.20;1.40;;;;;;;;;;5032441;28;20439;-83
2024/01/05 02:17:51;;;;;;;3.25;1.80;;;;;;;;;;5050721;28;20025;-83
2024/01/05 02:20:17;;;;;;;2.92;1.88;;;;;;;;;;5049747;28;20075;-83
2024/01/05 02:22:44;;;;;;;3.17;1.90;;;;;;;;;;5050867;28;20035;-83
2024/01/05 02:25:10;;;;;;;3.63;1.80;;;;;;;;;;5050000;28;20032;-84
2024/01/05 02:27:37;;;;;;;5.78;2.10;;;;;;;;;;5050342;28;20341;-83
2024/01/05 02:30:03;;;;;;;2.00;1.52;;;;;;;;;;5047271;28;20447;-83
2024/01/05 02:32:30;;;;;;;3.42;1.80;;;;;;;;;;5050170;28;20059;-83
2024/01/05 02:34:56;;;;;;;3.10;1.80;;;;;;;;;;5049702;28;20217;-83
2024/01/05 02:37:22;;;;;;;4.65;2.03;;;;;;;;;;5049843;28;20035;-84
2024/01/05 02:39:48;;;;;;;2.35;1.80;;;;;;;;;;5050456;28;20092;-84
2024/01/05 02:42:14;;;;;;;3.83;2.03;;;;;;;;;;5050106;28;20052;-83
2024/01/05 02:44:40;;;;;;;3.40;1.90;;;;;;;;;;5041135;28;20079;-83
2024/01/05 02:47:06;;;;;;;3.15;1.98;;;;;;;;;;5049916;28;20049;-84
2024/01/05 02:49:32;;;;;;;5.60;1.77;;;;;;;;;;5050082;28;20496;-82
2024/01/05 02:51:58;;;;;;;5.20;1.90;;;;;;;;;;5037404;28;20025;-83
2024/01/05 02:54:24;;;;;;;6.18;2.20;;;;;;;;;;5055342;28;20103;-84
2024/01/05 02:56:50;;;;;;;3.53;1.88;;;;;;;;;;5049090;28;20446;-83
2024/01/05 02:59:17;;;;;;;4.25;2.00;;;;;;;;;;5050465;28;20079;-83
2024/01/05 03:01:43;;;;;;;2.58;2.10;;;;;;;;;;5049596;28;20100;-83
2024/01/05 03:04:10;;;;;;;3.50;2.17;;;;;;;;;;5049426;28;20434;-83
2024/01/05 03:06:36;;;;;;;2.80;2.00;;;;;;;;;;5049285;28;20069;-83
2024/01/05 03:09:05;;;;;;;2.97;2.10;;;;;;;;;;5048996;28;20056;-83
2024/01/05 03:11:31;;;;;;;5.82;1.90;;;;;;;;;;5056349;28;20021;-83
2024/01/05 03:13:57;;;;;;;6.72;2.17;;;;;;;;;;5049459;28;20508;-83
2024/01/05 03:16:22;;;;;;;5.88;1.88;;;;;;;;;;5049368;28;20111;-83
2024/01/05 03:18:49;;;;;;;5.03;2.00;;;;;;;;;;5050440;28;20028;-83
2024/01/05 03:21:15;;;;;;;3.60;2.05;;;;;;;;;;5052138;28;20029;-83
2024/01/05 03:23:41;;;;;;;4.35;1.90;;;;;;;;;;5056716;28;20082;-82
2024/01/05 03:26:10;;;;;;;4.15;1.80;;;;;;;;;;5048704;28;20378;-83
2024/01/05 03:28:38;;;;;;;4.28;2.00;;;;;;;;;;5030999;28;20036;-83
2024/01/05 03:31:04;;;;;;;2.33;1.65;;;;;;;;;;5048895;28;20033;-83
2024/01/05 03:33:30;;;;;;;3.30;1.92;;;;;;;;;;5049402;28;20021;-83
2024/01/05 03:35:56;;;;;;;2.88;1.77;;;;;;;;;;5033136;28;20033;-83
2024/01/05 03:38:22;;;;;;;3.40;2.00;;;;;;;;;;5049315;28;20024;-83
2024/01/05 03:40:48;;;;;;;3.70;1.90;;;;;;;;;;5050143;28;20409;-82
2024/01/05 03:43:14;;;;;;;3.08;1.70;;;;;;;;;;5040512;28;20032;-83
2024/01/05 03:45:40;;;;;;;3.85;1.85;;;;;;;;;;5049129;28;20021;-82
2024/01/05 03:48:06;;;;;;;4.85;2.45;;;;;;;;;;5048744;28;20511;-82
2024/01/05 03:50:32;;;;;;;5.60;2.08;;;;;;;;;;5048907;28;20489;-82
2024/01/05 03:52:58;;;;;;;4.88;1.88;;;;;;;;;;5048698;28;20029;-82
2024/01/05 03:55:24;;;;;;;6.05;1.80;;;;;;;;;;5048519;28;20450;-82
2024/01/05 03:57:50;;;;;;;7.88;2.15;;;;;;;;;;5048859;28;20047;-83
2024/01/05 04:00:16;;;;;;;7.05;1.92;;;;;;;;;;5048547;28;20382;-81
2024/01/05 04:02:42;;;;;;;5.25;1.85;;;;;;;;;;5048411;28;20033;-82
2024/01/05 04:05:09;;;;;;;4.38;1.90;;;;;;;;;;5047990;28;20036;-82
2024/01/05 04:07:35;;;;;;;6.38;2.00;;;;;;;;;;5048372;28;20071;-82
2024/01/05 04:10:01;;;;;;;3.78;1.90;;;;;;;;;;5047954;28;20021;-82
2024/01/05 04:12:27;;;;;;;3.13;1.90;;;;;;;;;;5051887;28;20025;-84
2024/01/05 04:14:53;;;;;;;6.93;1.90;;;;;;;;;;5068836;28;20115;-84
2024/01/05 04:17:19;;;;;;;3.72;1.90;;;;;;;;;;5057755;28;20132;-84
2024/01/05 04:19:45;;;;;;;5.65;1.90;;;;;;;;;;5048599;28;20095;-84
2024/01/05 04:22:11;;;;;;;3.22;1.80;;;;;;;;;;5048591;28;20436;-83
2024/01/05 04:24:37;;;;;;;5.18;2.10;;;;;;;;;;5048321;28;20033;-84
2024/01/05 04:27:03;;;;;;;8.07;2.78;;;;;;;;;;5047464;28;20028;-82
2024/01/05 04:29:29;;;;;;;3.55;2.22;;;;;;;;;;5047450;28;20039;-82
2024/01/05 04:31:55;;;;;;;2.55;2.10;;;;;;;;;;5047991;28;20060;-82
2024/01/05 04:34:21;;;;;;;9.20;2.63;;;;;;;;;;5047761;28;20381;-82
2024/01/05 04:36:47;;;;;;;5.35;1.98;;;;;;;;;;5048111;28;20108;-84
2024/01/05 04:39:13;;;;;;;5.18;2.10;;;;;;;;;;5047787;28;20461;-81
2024/01/05 04:41:39;;;;;;;5.70;2.80;;;;;;;;;;5048560;28;20029;-81
2024/01/05 04:44:05;;;;;;;5.28;2.35;;;;;;;;;;5048182;28;20100;-84
2024/01/05 04:46:31;;;;;;;4.60;2.40;;;;;;;;;;5048341;28;20104;-84
2024/01/05 04:48:57;;;;;;;4.15;2.60;;;;;;;;;;5048009;28;20108;-84
2024/01/05 04:51:23;;;;;;;4.32;2.40;;;;;;;;;;5048906;28;20477;-84
2024/01/05 04:53:49;;;;;;;3.65;2.40;;;;;;;;;;5050407;28;20025;-82
2024/01/05 04:56:16;;;;;;;5.55;2.80;;;;;;;;;;5056367;28;20040;-84
2024/01/05 04:58:42;;;;;;;5.38;2.30;;;;;;;;;;5048018;28;20497;-83
2024/01/05 05:01:08;;;;;;;3.55;2.03;;;;;;;;;;5030284;28;20044;-84
2024/01/05 05:03:34;;;;;;;4.38;2.10;;;;;;;;;;5030486;28;20025;-83
2024/01/05 05:06:00;;;;;;;5.85;2.53;;;;;;;;;;5048626;28;20024;-83
2024/01/05 05:08:26;;;;;;;6.32;2.13;;;;;;;;;;5033970;28;20393;-83
2024/01/05 05:10:52;;;;;;;3.33;2.15;;;;;;;;;;5052127;28;20481;-83
2024/01/05 05:13:18;;;;;;;3.72;2.50;;;;;;;;;;5051416;28;20032;-83
2024/01/05 05:15:44;;;;;;;5.22;2.30;;;;;;;;;;5053561;28;20121;-84
2024/01/05 05:18:10;;;;;;;7.07;3.33;;;;;;;;;;5060384;28;20021;-84
2024/01/05 05:20:36;;;;;;;4.93;2.60;;;;;;;;;;5053936;28;20411;-82
2024/01/05 05:23:02;;;;;;;5.65;2.75;;;;;;;;;;5050531;28;20090;-81
2024/01/05 05:25:28;;;;;;;3.83;2.33;;;;;;;;;;5049807;28;20071;-84
2024/01/05 05:27:54;;;;;;;5.03;2.20;;;;;;;;;;5049983;28;20439;-82
2024/01/05 05:30:20;;;;;;;3.70;2.05;;;;;;;;;;5049716;28;20075;-82
2024/01/05 05:32:46;;;;;;;3.78;2.33;;;;;;;;;;5053706;28;20231;-83
2024/01/05 05:35:12;;;;;;;3.08;2.30;;;;;;;;;;5049381;28;20128;-81
2024/01/05 05:37:38;;;;;;;5.15;2.20;;;;;;;;;;5049571;28;20070;-83
2024/01/05 05:40:04;;;;;;;3.95;1.90;;;;;;;;;;5038610;28;20032;-84
2024/01/05 05:42:30;;;;;;;5.90;2.00;;;;;;;;;;5051549;28;20021;-81
2024/01/05 05:44:57;;;;;;;4.78;2.10;;;;;;;;;;5052135;28;20029;-81
2024/01/05 05:47:23;;;;;;;3.70;1.80;;;;;;;;;;5051963;28;20017;-82
2024/01/05 05:49:49;;;;;;;3.65;1.63;;;;;;;;;;5033309;28;20484;-82
2024/01/05 05:52:15;;;;;;;4.55;2.03;;;;;;;;;;5033049;28;20017;-86
2024/01/05 05:54:41;;;;;;;4.88;1.80;;;;;;;;;;5051068;28;20064;-84
2024/01/05 05:57:08;;;;;;;5.93;1.92;;;;;;;;;;5051056;28;20078;-84
2024/01/05 05:59:34;;;;;;;5.95;2.00;;;;;;;;;;5040639;28;20032;-82
2024/01/05 06:02:00;;;;;;;5.78;1.98;;;;;;;;;;5071134;28;20025;-84
2024/01/05 06:04:26;;;;;;;6.22;1.88;;;;;;;;;;5071934;28;20052;-83
2024/01/05 06:06:52;;;;;;;3.80;1.77;;;;;;;;;;5070961;28;20048;-83
2024/01/05 06:09:18;;;;;;;1.98;1.45;;;;;;;;;;5070800;28;20672;-84
2024/01/05 06:11:44;;;;;;;2.88;1.52;;;;;;;;;;5070932;28;20028;-84
2024/01/05 06:14:10;;;;;;;4.13;2.20;;;;;;;;;;5070962;28;20462;-84
2024/01/05 06:16:36;;;;;;;4.40;1.92;;;;;;;;;;5070429;28;20020;-84
2024/01/05 06:19:02;;;;;;;4.63;1.75;;;;;;;;;;5070147;28;20059;-83
2024/01/05 06:21:28;;;;;;;3.55;1.70;;;;;;;;;;5071582;28;20036;-84
2024/01/05 06:23:54;;;;;;;6.22;1.90;;;;;;;;;;5071640;28;20032;-83
2024/01/05 06:26:20;;;;;;;2.60;1.80;;;;;;;;;;5070731;28;20020;-84
2024/01/05 06:28:48;;;;;;;2.17;1.55;;;;;;;;;;5052648;28;20119;-83
2024/01/05 06:31:14;;;;;;;2.83;1.73;;;;;;;;;;5070617;28;20020;-82
2024/01/05 06:33:41;;;;;;;4.15;1.80;;;;;;;;;;5070483;28;20083;-83
2024/01/05 06:36:07;;;;;;;8.00;2.00;;;;;;;;;;5070403;28;20511;-83
2024/01/05 06:38:33;;;;;;;8.98;2.00;;;;;;;;;;5070418;28;20024;-83
2024/01/05 06:40:59;;;;;;;3.83;1.63;;;;;;;;;;5071205;28;20024;-84
2024/01/05 06:43:25;;;;;;;7.97;2.10;;;;;;;;;;5070287;28;20020;-83
2024/01/05 06:45:51;;;;;;;3.92;1.75;;;;;;;;;;5070274;28;20229;-82
2024/01/05 06:48:17;;;;;;;3.97;2.00;;;;;;;;;;5070078;28;20032;-83
2024/01/05 06:50:43;;;;;;;6.45;2.40;;;;;;;;;;5070134;28;20024;-82
2024/01/05 06:53:09;;;;;;;3.83;2.47;;;;;;;;;;5070158;28;20032;-83
2024/01/05 06:55:35;;;;;;;5.00;2.33;;;;;;;;;;5070058;28;20159;-83
2024/01/05 06:58:02;;;;;;;6.85;2.38;;;;;;;;;;5070708;28;20016;-83
2024/01/05 07:00:28;;;;;;;4.95;2.80;;;;;;;;;;5070888;28;20033;-83
2024/01/05 07:02:55;;;;;;;4.50;1.90;;;;;;;;;;5069867;28;20017;-82
2024/01/05 07:05:21;;;;;;;4.28;1.80;;;;;;;;;;5069846;28;20020;-83
2024/01/05 07:07:47;;;;;;;5.30;2.00;;;;;;;;;;5069856;28;20024;-83
2024/01/05 07:10:13;;;;;;;4.03;2.28;;;;;;;;;;5069793;28;20025;-83
2024/01/05 07:12:39;;;;;;;6.20;1.90;;;;;;;;;;5069838;28;20029;-83
2024/01/05 07:15:06;;;;;;;3.75;2.13;;;;;;;;;;5069547;28;20033;-82
2024/01/05 07:17:32;;;;;;;3.97;1.85;;;;;;;;;;5070504;28;20016;-82
2024/01/05 07:19:58;;;;;;;1.88;1.70;;;;;;;;;;5052386;28;20032;-83
2024/01/05 07:22:24;;;;;;;6.13;2.10;;;;;;;;;;5069481;28;20047;-83
2024/01/05 07:24:50;;;;;;;4.20;1.83;;;;;;;;;;5069513;28;20059;-82
2024/01/05 07:27:16;;;;;;;8.70;2.30;;;;;;;;;;5069401;28;20052;-83
2024/01/05 07:29:42;;;;;;;5.32;1.92;;;;;;;;;;5069220;28;20059;-82
2024/01/05 07:32:09;;;;;;;6.65;1.98;;;;;;;;;;5069497;28;20033;-82
2024/01/05 07:34:34;;;;;;;6.80;2.10;;;;;;;;;;5069400;28;20043;-82
2024/01/05 07:37:00;;;;;;;3.08;1.75;;;;;;;;;;5070208;28;20021;-82
2024/01/05 07:39:27;;;;;;;5.72;2.40;;;;;;;;;;5068940;28;20028;-83
2024/01/05 07:41:53;;;;;;;4.72;1.90;;;;;;;;;;5051429;28;20025;-81
2024/01/05 07:44:19;;;;;;;5.47;2.55;;;;;;;;;;5069188;28;20039;-87
2024/01/05 07:46:45;;;;;;;7.00;2.22;;;;;;;;;;5069126;28;20028;-86
2024/01/05 07:49:11;;;;;;;6.70;2.22;;;;;;;;;;5051124;28;20043;-86
2024/01/05 07:51:37;;;;;;;3.88;2.10;;;;;;;;;;5069116;28;20479;-86
2024/01/05 07:54:04;;;;;;;6.30;2.10;;;;;;;;;;5051492;28;20082;-86
2024/01/05 07:56:30;;;;;;;6.20;2.60;;;;;;;;;;5051551;28;20369;-86
2024/01/05 07:58:56;;;;;;;8.65;2.88;;;;;;;;;;5068644;28;20036;-86
2024/01/05 08:01:22;;;;;;;5.82;3.15;;;;;;;;;;5068990;28;20074;-86
2024/01/05 08:03:48;;;;;;;6.65;2.65;;;;;;;;;;5050993;28;20028;-86
2024/01/05 08:06:18;;;;;;;5.18;2.53;;;;;;;;;;5068980;28;20372;-87
2024/01/05 08:08:45;;;;;;;3.55;2.28;;;;;;;;;;5050999;28;20025;-86
2024/01/05 08:11:10;;;;;;;2.67;1.80;;;;;;;;;;5051029;28;20093;-86
2024/01/05 08:13:36;;;;;;;4.32;2.20;;;;;;;;;;5068825;28;20499;-87
2024/01/05 08:16:03;;;;;;;10.95;3.03;;;;;;;;;;5044582;28;20029;-86
2024/01/05 08:18:29;;;;;;;4.10;1.83;;;;;;;;;;5036595;28;20474;-87
2024/01/05 08:20:55;;;;;;;4.85;2.72;;;;;;;;;;5030395;28;20523;-86
2024/01/05 08:23:21;;;;;;;5.25;3.00;;;;;;;;;;5059166;28;20036;-87
2024/01/05 08:25:47;;;;;;;10.73;4.00;;;;;;;;;;5058204;28;20043;-87
2024/01/05 08:28:13;;;;;;;5.70;3.88;;;;;;;;;;5052619;28;20027;-86
2024/01/05 08:30:39;;;;;;;5.78;3.50;;;;;;;;;;5056238;28;20013;-87
2024/01/05 08:33:05;;;;;;;5.28;2.97;;;;;;;;;;5049375;28;20029;-86
2024/01/05 08:35:31;;;;;;;8.77;3.35;;;;;;;;;;5039064;28;20434;-86
2024/01/05 08:37:57;;;;;;;5.15;2.95;;;;;;;;;;5053806;28;20473;-86
2024/01/05 08:40:26;;;;;;;9.80;3.13;;;;;;;;;;5057481;28;20402;-87
2024/01/05 08:42:52;;;;;;;4.85;2.58;;;;;;;;;;5072315;28;20047;-86
2024/01/05 08:45:19;;;;;;;7.13;2.97;;;;;;;;;;5070962;28;20078;-87
2024/01/05 08:47:45;;;;;;;4.50;2.53;;;;;;;;;;5051984;28;20025;-86
2024/01/05 08:50:11;;;;;;;5.20;2.58;;;;;;;;;;5051213;28;20017;-86
2024/01/05 08:52:38;;;;;;;3.03;2.17;;;;;;;;;;5052280;28;20542;-88
2024/01/05 08:55:04;;;;;;;2.85;2.15;;;;;;;;;;5052661;28;20043;-86
2024/01/05 08:57:30;;;;;;;3.75;2.38;;;;;;;;;;5033741;28;20017;-86
2024/01/05 08:59:56;;;;;;;3.88;2.08;;;;;;;;;;5051759;28;20127;-86
2024/01/05 09:02:23;;;;;;;6.85;2.58;;;;;;;;;;5051376;28;20542;-86
2024/01/05 09:04:49;;;;;;;5.18;2.20;;;;;;;;;;5050155;28;20103;-86
2024/01/05 09:07:15;;;;;;;5.70;2.58;;;;;;;;;;5051597;28;20029;-86
2024/01/05 09:09:41;;;;;;;10.93;2.50;;;;;;;;;;5051669;28;20021;-86
2024/01/05 09:12:08;;;;;;;5.75;2.47;;;;;;;;;;5049391;28;20530;-86
2024/01/05 09:14:36;;;;;;;4.30;2.40;;;;;;;;;;5034371;28;20040;-86
2024/01/05 09:17:02;;;;;;;6.30;2.38;;;;;;;;;;5032189;28;20108;-86
2024/01/05 09:19:28;;;;;;;3.45;2.45;;;;;;;;;;5050909;28;20965;-85
2024/01/05 09:21:54;;;;;;;7.05;2.80;;;;;;;;;;5050178;28;20032;-86
2024/01/05 09:24:21;;;;;;;6.57;2.17;;;;;;;;;;5051244;28;20024;-85
2024/01/05 09:26:48;;;;;;;3.05;2.38;;;;;;;;;;5051155;28;20035;-86
2024/01/05 09:29:14;;;;;;;6.07;2.60;;;;;;;;;;5051362;28;20017;-86
2024/01/05 09:31:45;;;;;;;4.45;2.40;;;;;;;;;;5032992;28;20031;-85
2024/01/05 09:34:11;;;;;;;3.42;2.22;;;;;;;;;;5051285;28;20099;-86
2024/01/05 09:36:43;;;;;;;8.30;2.50;;;;;;;;;;5052069;28;20435;-86
2024/01/05 09:39:13;;;;;;;8.88;2.92;;;;;;;;;;5051242;28;20025;-86
2024/01/05 09:41:42;;;;;;;8.70;2.85;;;;;;;;;;5052025;28;20033;-86
2024/01/05 09:44:10;;;;;;;3.67;2.50;;;;;;;;;;5034253;28;20497;-86
2024/01/05 09:46:38;;;;;;;4.72;2.47;;;;;;;;;;5034178;28;20036;-86
2024/01/05 09:49:06;;;;;;;5.63;2.65;;;;;;;;;;5033161;28;20501;-85
2024/01/05 09:51:32;;;;;;;8.57;2.70;;;;;;;;;;5050743;28;20477;-85
2024/01/05 09:53:58;;;;;;;3.90;2.42;;;;;;;;;;5051085;28;20032;-85
2024/01/05 09:56:26;;;;;;;3.58;2.35;;;;;;;;;;5033381;28;20111;-89
2024/01/05 09:58:52;;;;;;;3.50;2.70;;;;;;;;;;5051172;28;20023;-86
2024/01/05 10:01:28;;;;;;;10.38;2.78;;;;;;;;;;5033204;28;20431;-86
2024/01/05 10:04:01;;;;;;;8.43;3.35;;;;;;;;;;5051100;28;20064;-87
2024/01/05 10:06:28;;;;;;;3.85;2.15;;;;;;;;;;5051079;28;20031;-86
2024/01/05 10:09:05;;;;;;;7.35;2.80;;;;;;;;;;5033183;28;20021;-86
2024/01/05 10:11:31;;;;;;;6.78;2.50;;;;;;;;;;5051067;28;20292;-86
2024/01/05 10:14:01;;;;;;;7.35;2.67;;;;;;;;;;5050900;28;20406;-86
2024/01/05 10:16:34;;;;;;;7.55;2.60;;;;;;;;;;5051033;28;20086;-86
2024/01/05 10:19:26;;;;;;;7.80;2.50;;;;;;;;;;5050865;28;20096;-86
2024/01/05 10:21:52;;;;;;;5.47;2.50;;;;;;;;;;5048694;28;20051;-86
2024/01/05 10:24:22;;;;;;;4.13;2.55;;;;;;;;;;5050866;28;20040;-87
2024/01/05 10:27:05;;;;;;;3.20;2.47;;;;;;;;;;5050654;28;20096;-86
2024/01/05 10:29:31;;;;;;;6.00;2.78;;;;;;;;;;5032706;28;20409;-85
2024/01/05 10:32:11;;;;;;;5.75;2.63;;;;;;;;;;5050580;28;20025;-86
2024/01/05 10:34:37;;;;;;;4.78;2.50;;;;;;;;;;5033064;28;20468;-86
2024/01/05 10:37:04;;;;;;;6.90;2.30;;;;;;;;;;5050333;28;20501;-87
2024/01/05 10:39:30;;;;;;;9.60;2.63;;;;;;;;;;5050298;28;20404;-87
2024/01/05 10:42:14;;;;;;;6.20;2.28;;;;;;;;;;5050327;28;20499;-86
2024/01/05 10:44:41;;;;;;;4.05;2.00;;;;;;;;;;5051075;28;20481;-88
2024/01/05 10:47:07;;;;;;;7.10;2.22;;;;;;;;;;5050360;28;20051;-87
2024/01/05 10:49:33;;;;;;;7.20;2.50;;;;;;;;;;5050209;28;20839;-87
2024/01/05 10:51:59;;;;;;;4.30;2.03;;;;;;;;;;5050200;28;20033;-87
2024/01/05 10:54:26;;;;;;;4.35;2.13;;;;;;;;;;5049892;28;20036;-86
2024/01/05 10:56:54;;;;;;;7.32;2.08;;;;;;;;;;5049807;28;20029;-87
2024/01/05 10:59:20;;;;;;;9.80;2.10;;;;;;;;;;5032286;28;20389;-87
2024/01/05 11:01:47;;;;;;;4.60;2.13;;;;;;;;;;5050005;28;20110;-86
2024/01/05 11:04:15;;;;;;;7.00;2.30;;;;;;;;;;5031138;28;20017;-85
2024/01/05 11:06:41;;;;;;;4.23;1.70;;;;;;;;;;5032452;28;20024;-85
2024/01/05 11:09:12;;;;;;;5.13;1.92;;;;;;;;;;5048150;28;20036;-85
2024/01/05 11:12:05;;;;;;;3.70;1.85;;;;;;;;;;5049530;28;20074;-85
2024/01/05 11:14:50;;;;;;;4.53;1.90;;;;;;;;;;5047507;28;20044;-85
2024/01/05 11:17:34;;;;;;;5.85;1.95;;;;;;;;;;5049616;28;20037;-85
2024/01/05 11:20:36;;;;;;;5.07;2.00;;;;;;;;;;5049639;28;20017;-85
2024/01/05 11:23:02;;;;;;;4.65;1.95;;;;;;;;;;4991227;28;20040;-85
2024/01/05 11:25:28;;;;;;;3.53;1.90;;;;;;;;;;5041291;28;20041;-85
2024/01/05 11:27:54;;;;;;;6.18;1.98;;;;;;;;;;5049628;28;20032;-85
2024/01/05 11:30:40;;;;;;;4.05;2.00;;;;;;;;;;5049547;28;20025;-85
2024/01/05 11:33:06;;;;;;;9.02;1.90;;;;;;;;;;5049411;28;20116;-85
2024/01/05 11:35:43;;;;;;;11.48;2.10;;;;;;;;;;5049342;28;20512;-85
2024/01/05 11:38:25;;;;;;;7.05;2.10;;;;;;;;;;5049323;28;20021;-85
2024/01/05 11:40:52;;;;;;;4.82;1.95;;;;;;;;;;5049376;28;20033;-85
2024/01/05 11:43:38;;;;;;;4.85;2.08;;;;;;;;;;5049271;28;20021;-85
2024/01/05 11:46:04;;;;;;;4.97;1.85;;;;;;;;;;5049406;28;20032;-85
2024/01/05 11:48:33;;;;;;;7.80;2.38;;;;;;;;;;5049201;28;20131;-85
2024/01/05 11:51:02;;;;;;;2.92;1.80;;;;;;;;;;5049270;28;20025;-85
2024/01/05 11:53:29;;;;;;;5.93;1.98;;;;;;;;;;5049067;28;20067;-85
2024/01/05 11:55:56;;;;;;;3.42;1.80;;;;;;;;;;5049068;28;20480;-85
2024/01/05 11:58:31;;;;;;;4.18;1.85;;;;;;;;;;5049171;28;20104;-84
2024/01/05 12:00:58;;;;;;;5.13;1.98;;;;;;;;;;5031112;28;20086;-85
2024/01/05 12:03:25;;;;;;;10.25;1.77;;;;;;;;;;5048996;28;20029;-85
2024/01/05 12:05:54;;;;;;;7.20;2.05;;;;;;;;;;5031160;28;20139;-85
2024/01/05 12:08:21;;;;;;;6.03;2.28;;;;;;;;;;5030980;28;20388;-85
2024/01/05 12:10:52;;;;;;;4.72;1.95;;;;;;;;;;5049793;28;20032;-85
2024/01/05 12:13:26;;;;;;;7.90;1.90;;;;;;;;;;5049027;28;20083;-84
2024/01/05 12:15:55;;;;;;;3.05;1.95;;;;;;;;;;5047799;28;20036;-84
2024/01/05 12:18:30;;;;;;;3.85;1.63;;;;;;;;;;5048933;28;20017;-84
2024/01/05 12:21:03;;;;;;;7.18;1.98;;;;;;;;;;5048989;28;20025;-85
2024/01/05 12:23:32;;;;;;;6.40;2.00;;;;;;;;;;5030904;28;20044;-85
2024/01/05 12:25:58;;;;;;;6.72;2.53;;;;;;;;;;5048882;28;20025;-85
2024/01/05 12:28:25;;;;;;;5.90;1.80;;;;;;;;;;5030923;28;20025;-85
2024/01/05 12:30:51;;;;;;;2.83;1.52;;;;;;;;;;5048905;28;20021;-85
2024/01/05 12:33:18;;;;;;;5.55;1.88;;;;;;;;;;5049537;28;20412;-85
2024/01/05 12:35:44;;;;;;;4.57;1.50;;;;;;;;;;5031655;28;20037;-85
2024/01/05 12:38:10;;;;;;;6.07;1.50;;;;;;;;;;5048685;28;20025;-85
2024/01/05 12:40:37;;;;;;;5.05;1.60;;;;;;;;;;5048675;28;20052;-85
2024/01/05 12:43:03;;;;;;;6.93;1.70;;;;;;;;;;5048663;28;20023;-85
2024/01/05 12:45:29;;;;;;;4.05;1.60;;;;;;;;;;5048617;28;20028;-85
2024/01/05 12:47:55;;;;;;;5.93;1.58;;;;;;;;;;5048660;28;20025;-85
2024/01/05 12:50:24;;;;;;;6.00;1.45;;;;;;;;;;5030705;28;20021;-85
2024/01/05 12:52:50;;;;;;;6.70;2.55;;;;;;;;;;5048729;28;20032;-85
2024/01/05 12:55:29;;;;;;;6.65;1.50;;;;;;;;;;5049141;28;20478;-85
2024/01/05 12:58:00;;;;;;;5.25;1.73;;;;;;;;;;5030878;28;20394;-85
2024/01/05 13:00:26;;;;;;;3.90;1.23;;;;;;;;;;5048505;28;20076;-85
2024/01/05 13:02:52;;;;;;;4.25;1.20;;;;;;;;;;5048574;28;20473;-85
2024/01/05 13:05:34;;;;;;;2.85;1.17;;;;;;;;;;5049211;28;20028;-85
2024/01/05 13:08:03;;;;;;;3.22;1.50;;;;;;;;;;5048496;28;20033;-84
2024/01/05 13:10:29;;;;;;;7.90;1.58;;;;;;;;;;5048298;28;20021;-85
2024/01/05 13:12:56;;;;;;;7.38;1.83;;;;;;;;;;5048386;28;20033;-85
2024/01/05 13:15:22;;;;;;;8.52;1.50;;;;;;;;;;5048308;28;20539;-85
2024/01/05 13:17:49;;;;;;;2.90;1.30;;;;;;;;;;5049186;28;20388;-85
2024/01/05 13:20:22;;;;;;;5.68;1.40;;;;;;;;;;5030361;28;20383;-85
2024/01/05 13:22:49;;;;;;;5.03;1.85;;;;;;;;;;5049103;28;20029;-85
2024/01/05 13:25:15;;;;;;;5.78;1.40;;;;;;;;;;5030339;28;20096;-85
2024/01/05 13:27:41;;;;;;;4.78;1.20;;;;;;;;;;5032545;28;20032;-85
2024/01/05 13:30:09;;;;;;;8.13;1.65;;;;;;;;;;5051897;28;20029;-85
2024/01/05 13:32:36;;;;;;;4.43;1.73;;;;;;;;;;5051820;28;20481;-85
2024/01/05 13:35:02;;;;;;;4.80;1.42;;;;;;;;;;5033687;28;20040;-85
2024/01/05 13:37:28;;;;;;;5.82;1.33;;;;;;;;;;5051697;28;20121;-85
2024/01/05 13:39:54;;;;;;;4.72;1.63;;;;;;;;;;5033814;28;20422;-85
2024/01/05 13:42:19;;;;;;;3.38;1.50;;;;;;;;;;5052413;28;20068;-85
2024/01/05 13:44:45;;;;;;;4.22;1.50;;;;;;;;;;5051461;28;20017;-85
2024/01/05 13:47:11;;;;;;;6.30;1.60;;;;;;;;;;5051453;28;20032;-85
2024/01/05 13:49:37;;;;;;;6.75;1.30;;;;;;;;;;5051415;28;20053;-85
2024/01/05 13:52:04;;;;;;;7.68;1.50;;;;;;;;;;5051384;28;20445;-85
2024/01/05 13:54:32;;;;;;;4.30;1.38;;;;;;;;;;5051275;28;20378;-85
2024/01/05 13:56:58;;;;;;;8.13;1.55;;;;;;;;;;5051413;28;20021;-85
2024/01/05 13:59:24;;;;;;;5.43;1.48;;;;;;;;;;5051324;28;20079;-85
2024/01/05 14:01:50;;;;;;;7.30;2.30;;;;;;;;;;5052110;28;20025;-85
2024/01/05 14:04:16;;;;;;;4.55;1.55;;;;;;;;;;5033290;28;20105;-85
2024/01/05 14:06:42;;;;;;;2.47;1.30;;;;;;;;;;5051130;28;20021;-85
2024/01/05 14:09:08;;;;;;;4.15;1.20;;;;;;;;;;5051101;28;20029;-85
2024/01/05 14:11:34;;;;;;;4.97;1.40;;;;;;;;;;5051038;28;20024;-85
2024/01/05 14:14:00;;;;;;;6.35;1.50;;;;;;;;;;5050813;28;20388;-85
2024/01/05 14:16:26;;;;;;;1.67;1.00;;;;;;;;;;5050862;28;20033;-86
2024/01/05 14:18:54;;;;;;;1.38;0.95;;;;;;;;;;5051772;28;20033;-85
2024/01/05 14:21:23;;;;;;;2.40;1.00;;;;;;;;;;5051708;28;20032;-85
2024/01/05 14:23:50;;;;;;;1.88;1.00;;;;;;;;;;5051388;28;20044;-85
2024/01/05 14:26:16;;;;;;;2.47;1.10;;;;;;;;;;5050779;28;20040;-85
2024/01/05 14:28:45;;;;;;;2.25;1.15;;;;;;;;;;5032728;28;20025;-85
2024/01/05 14:31:11;;;;;;;1.60;0.93;;;;;;;;;;5032612;28;20025;-85
2024/01/05 14:33:37;;;;;;;2.92;1.15;;;;;;;;;;5050643;28;20020;-85
2024/01/05 14:36:04;;;;;;;0.95;0.80;;;;;;;;;;5050520;28;20573;-86
2024/01/05 14:38:33;;;;;;;4.03;1.20;;;;;;;;;;5049480;28;20104;-85
2024/01/05 14:40:59;;;;;;;3.13;0.77;;;;;;;;;;5050431;28;20075;-85
2024/01/05 14:43:25;;;;;;;3.05;1.00;;;;;;;;;;5033148;28;20053;-85